Time;durP1;ratioP1;P1;durP2;ratioP2;P2;SDS_P1;SDS_P2;PMS_P1;PMS_P2;Temp;Humidity;BMP_temperature;BMP_pressure;BME280_temperature;BME280_humidity;BME280_pressure;Samples;Min_cycle;Max_cycle;Signal;HPM_P1;HPM_P2
2021/12/02 00:00:58;;;;;;;2.85;2.03;;;;;;;;;;5007869;28;20133;-67
2021/12/02 00:03:25;;;;;;;;;;;;;;;;;;5007674;28;20046;-67
2021/12/02 00:05:53;;;;;;;4.00;2.63;;;;;;;;;;5008188;28;19922;-67
2021/12/02 00:08:20;;;;;;;4.28;2.60;;;;;;;;;;5010429;28;20054;-67
2021/12/02 00:10:46;;;;;;;3.83;1.85;;;;;;;;;;5007691;28;20116;-67
2021/12/02 00:13:13;;;;;;;5.43;2.15;;;;;;;;;;5005109;28;20513;-67
2021/12/02 00:23:28;;;;;;;;;;;;;;;;;;5011553;28;20124;-67
2021/12/02 00:25:58;;;;;;;2.17;1.70;;;;;;;;;;5005017;28;19975;-67
2021/12/02 00:28:26;;;;;;;3.83;1.95;;;;;;;;;;5011539;28;20093;-67
2021/12/02 00:30:54;;;;;;;8.30;2.17;;;;;;;;;;5008141;28;20129;-67
2021/12/02 00:33:22;;;;;;;2.65;1.75;;;;;;;;;;5006061;28;20438;-67
2021/12/02 00:35:48;;;;;;;3.03;1.67;;;;;;;;;;5005653;28;20092;-67
2021/12/02 00:38:17;;;;;;;3.63;1.73;;;;;;;;;;5008299;28;20050;-67
2021/12/02 00:40:44;;;;;;;3.67;1.92;;;;;;;;;;5006779;28;20140;-67
2021/12/02 00:43:11;;;;;;;3.30;1.88;;;;;;;;;;5005622;28;20085;-67
2021/12/02 00:45:39;;;;;;;4.03;2.10;;;;;;;;;;5009201;28;20144;-66
2021/12/02 00:48:06;;;;;;;4.50;2.10;;;;;;;;;;5007919;28;20046;-67
2021/12/02 00:50:33;;;;;;;2.33;1.60;;;;;;;;;;5011977;28;20050;-67
2021/12/02 00:53:00;;;;;;;7.00;1.95;;;;;;;;;;5008010;28;20123;-66
2021/12/02 00:55:27;;;;;;;3.43;1.73;;;;;;;;;;5007728;28;20699;-67
2021/12/02 00:57:54;;;;;;;2.30;1.55;;;;;;;;;;5006094;28;20293;-67
2021/12/02 01:00:21;;;;;;;;;;;;;;;;;;5000255;28;20467;-67
2021/12/02 01:02:48;;;;;;;2.67;1.85;;;;;;;;;;5005361;28;20016;-66
2021/12/02 01:05:15;;;;;;;2.97;1.80;;;;;;;;;;5013763;28;20045;-67
2021/12/02 01:07:42;;;;;;;4.38;1.70;;;;;;;;;;5010950;28;20123;-67
2021/12/02 01:10:09;;;;;;;2.40;1.52;;;;;;;;;;4999883;28;20042;-67
2021/12/02 01:12:36;;;;;;;1.85;1.60;;;;;;;;;;5001082;28;20049;-67
2021/12/02 01:15:04;;;;;;;3.13;1.90;;;;;;;;;;5005083;28;20502;-67
2021/12/02 01:17:30;;;;;;;;;;;;;;;;;;5007961;28;20145;-66
2021/12/02 01:19:57;;;;;;;2.78;1.83;;;;;;;;;;5002813;28;20017;-67
2021/12/02 01:22:24;;;;;;;2.97;1.65;;;;;;;;;;5005620;28;20042;-67
2021/12/02 01:24:52;;;;;;;5.13;1.48;;;;;;;;;;5004340;28;20089;-67
2021/12/02 01:27:18;;;;;;;;;;;;;;;;;;5007589;28;20084;-67
2021/12/02 01:29:45;;;;;;;3.45;1.70;;;;;;;;;;5003843;28;19967;-67
2021/12/02 01:32:12;;;;;;;3.87;1.57;;;;;;;;;;5003210;28;20148;-66
2021/12/02 01:34:43;;;;;;;1.83;1.58;;;;;;;;;;5002617;28;20121;-67
2021/12/02 01:37:10;;;;;;;3.03;1.67;;;;;;;;;;5004453;28;20133;-67
2021/12/02 01:39:37;;;;;;;;;;;;;;;;;;5011036;28;20643;-67
2021/12/02 01:42:06;;;;;;;3.63;1.75;;;;;;;;;;5000815;28;19961;-67
2021/12/02 01:44:39;;;;;;;6.53;1.92;;;;;;;;;;5002975;28;20088;-67
2021/12/02 01:47:11;;;;;;;4.82;2.90;;;;;;;;;;5002534;28;20078;-67
2021/12/02 01:49:40;;;;;;;5.47;2.65;;;;;;;;;;5006943;28;20144;-67
2021/12/02 01:52:10;;;;;;;5.60;2.90;;;;;;;;;;5001220;28;20081;-67
2021/12/02 01:54:41;;;;;;;4.93;2.75;;;;;;;;;;5005146;28;20081;-67
2021/12/02 01:57:08;;;;;;;6.28;3.15;;;;;;;;;;5008012;28;20053;-67
2021/12/02 01:59:35;;;;;;;6.67;2.70;;;;;;;;;;5007336;28;20146;-67
2021/12/02 02:02:03;;;;;;;7.65;3.13;;;;;;;;;;5007850;28;20107;-67
2021/12/02 02:04:30;;;;;;;5.25;2.67;;;;;;;;;;5003750;28;20133;-67
2021/12/02 02:06:57;;;;;;;5.17;2.97;;;;;;;;;;5001333;28;20469;-67
2021/12/02 02:09:25;;;;;;;7.33;3.20;;;;;;;;;;4995734;28;20297;-67
2021/12/02 02:11:52;;;;;;;6.00;3.00;;;;;;;;;;5003353;28;20142;-67
2021/12/02 02:14:19;;;;;;;5.63;3.57;;;;;;;;;;4999286;28;20147;-67
2021/12/02 02:16:47;;;;;;;4.28;2.40;;;;;;;;;;5000422;28;20156;-67
2021/12/02 02:19:15;;;;;;;6.88;3.20;;;;;;;;;;5000709;28;20038;-67
2021/12/02 02:21:42;;;;;;;4.32;2.50;;;;;;;;;;5001048;28;20489;-67
2021/12/02 02:24:17;;;;;;;4.63;2.30;;;;;;;;;;4998692;28;20129;-67
2021/12/02 02:26:44;;;;;;;6.03;2.80;;;;;;;;;;5000836;28;20581;-67
2021/12/02 02:29:12;;;;;;;7.22;2.70;;;;;;;;;;5001868;28;20093;-67
2021/12/02 02:31:41;;;;;;;4.43;2.80;;;;;;;;;;4999704;28;20088;-67
2021/12/02 02:34:08;;;;;;;3.55;2.53;;;;;;;;;;4990874;28;20042;-67
2021/12/02 02:36:37;;;;;;;4.60;2.25;;;;;;;;;;5001730;28;20466;-67
2021/12/02 02:39:04;;;;;;;4.65;2.45;;;;;;;;;;5001580;28;20321;-67
2021/12/02 02:41:35;;;;;;;5.07;3.00;;;;;;;;;;5007416;28;20058;-67
2021/12/02 02:44:02;;;;;;;4.40;2.30;;;;;;;;;;5009474;28;20073;-67
2021/12/02 02:46:30;;;;;;;5.38;2.53;;;;;;;;;;5000220;28;20046;-67
2021/12/02 02:48:58;;;;;;;4.03;2.55;;;;;;;;;;5007335;28;20136;-67
2021/12/02 02:51:26;;;;;;;7.07;3.05;;;;;;;;;;5005191;28;20081;-67
2021/12/02 02:53:55;;;;;;;6.28;3.03;;;;;;;;;;5003756;28;20709;-67
2021/12/02 02:56:24;;;;;;;3.88;2.67;;;;;;;;;;5002339;28;20076;-67
2021/12/02 02:59:01;;;;;;;4.88;2.58;;;;;;;;;;5004078;28;20085;-67
2021/12/02 03:06:59;;;;;;;5.18;2.83;;;;;;;;;;5002793;28;20487;-67
2021/12/02 03:11:53;;;;;;;3.85;2.30;;;;;;;;;;5002584;28;20165;-67
2021/12/02 03:14:27;;;;;;;4.22;2.20;;;;;;;;;;4997249;28;20133;-67
2021/12/02 03:16:54;;;;;;;3.30;2.28;;;;;;;;;;5001801;28;20466;-67
2021/12/02 03:19:25;;;;;;;4.97;2.15;;;;;;;;;;4999262;28;20620;-67
2021/12/02 03:21:52;;;;;;;4.28;2.22;;;;;;;;;;4999715;28;20091;-67
2021/12/02 03:24:21;;;;;;;;;;;;;;;;;;4998764;28;20133;-66
2021/12/02 03:26:48;;;;;;;3.40;2.20;;;;;;;;;;5007774;28;19952;-67
2021/12/02 03:29:15;;;;;;;6.40;2.30;;;;;;;;;;5002991;28;20142;-67
2021/12/02 03:31:42;;;;;;;;;;;;;;;;;;5002290;28;20081;-67
2021/12/02 03:34:09;;;;;;;4.90;2.15;;;;;;;;;;5003357;28;20024;-67
2021/12/02 03:36:35;;;;;;;2.85;2.10;;;;;;;;;;5003712;28;20097;-67
2021/12/02 03:39:03;;;;;;;5.80;2.25;;;;;;;;;;4999494;28;20277;-67
2021/12/02 03:41:30;;;;;;;4.85;2.45;;;;;;;;;;4986616;28;20144;-67
2021/12/02 03:43:57;;;;;;;3.85;2.30;;;;;;;;;;4984549;28;20079;-67
2021/12/02 03:46:24;;;;;;;3.75;2.10;;;;;;;;;;4984444;28;20641;-67
2021/12/02 03:48:51;;;;;;;2.88;1.83;;;;;;;;;;4980796;28;20085;-67
2021/12/02 03:51:19;;;;;;;4.30;2.22;;;;;;;;;;4984020;28;20058;-67
2021/12/02 03:53:46;;;;;;;1.83;1.42;;;;;;;;;;4985126;28;20546;-67
2021/12/02 03:56:13;;;;;;;3.95;2.00;;;;;;;;;;4980510;28;20566;-67
2021/12/02 03:58:41;;;;;;;2.47;1.80;;;;;;;;;;4985586;28;20050;-67
2021/12/02 04:01:09;;;;;;;3.50;1.70;;;;;;;;;;4975540;28;20433;-67
2021/12/02 04:03:36;;;;;;;5.00;1.70;;;;;;;;;;4981808;28;20090;-67
2021/12/02 04:06:04;;;;;;;3.25;2.22;;;;;;;;;;4984154;28;20047;-67
2021/12/02 04:08:54;;;;;;;2.85;1.60;;;;;;;;;;4980296;28;20084;-67
2021/12/02 04:16:36;;;;;;;4.70;2.10;;;;;;;;;;4987085;28;20046;-67
2021/12/02 04:19:03;;;;;;;3.03;1.75;;;;;;;;;;4986968;28;20473;-67
2021/12/02 04:21:30;;;;;;;3.08;1.95;;;;;;;;;;4985645;28;20695;-67
2021/12/02 04:23:57;;;;;;;4.67;2.30;;;;;;;;;;4985750;28;20043;-67
2021/12/02 04:26:24;;;;;;;4.28;1.95;;;;;;;;;;4986296;28;20329;-67
2021/12/02 04:28:51;;;;;;;5.47;2.30;;;;;;;;;;4987417;28;20125;-67
2021/12/02 04:31:17;;;;;;;3.88;1.50;;;;;;;;;;4981788;28;20321;-67
2021/12/02 04:33:44;;;;;;;4.90;1.90;;;;;;;;;;4985053;28;20048;-67
2021/12/02 04:36:11;;;;;;;4.28;1.90;;;;;;;;;;4982407;28;20150;-67
2021/12/02 04:38:37;;;;;;;2.13;1.27;;;;;;;;;;4980609;28;20078;-67
2021/12/02 04:41:04;;;;;;;1.67;1.57;;;;;;;;;;4993688;28;20081;-67
2021/12/02 04:43:30;;;;;;;2.58;1.73;;;;;;;;;;5008924;28;20077;-67
2021/12/02 04:45:57;;;;;;;4.15;1.80;;;;;;;;;;5008391;28;20066;-67
2021/12/02 04:48:23;;;;;;;4.17;1.70;;;;;;;;;;5005845;28;20573;-67
2021/12/02 04:50:50;;;;;;;3.80;1.77;;;;;;;;;;5004703;28;20042;-67
2021/12/02 04:53:17;;;;;;;3.87;1.57;;;;;;;;;;5005405;28;20394;-67
2021/12/02 04:55:44;;;;;;;3.83;1.85;;;;;;;;;;5005320;28;20058;-67
2021/12/02 04:58:10;;;;;;;2.35;1.33;;;;;;;;;;5005739;28;20052;-67
2021/12/02 05:00:37;;;;;;;3.20;1.70;;;;;;;;;;5000064;28;20149;-67
2021/12/02 05:03:04;;;;;;;2.40;1.45;;;;;;;;;;5002899;28;20077;-67
2021/12/02 05:05:33;;;;;;;3.20;2.10;;;;;;;;;;5002010;28;20094;-67
2021/12/02 05:08:00;;;;;;;3.10;1.83;;;;;;;;;;5003828;28;20092;-67
2021/12/02 05:10:27;;;;;;;;;;;;;;;;;;4996452;28;20088;-67
2021/12/02 05:12:53;;;;;;;1.38;1.00;;;;;;;;;;4997702;28;20016;-67
2021/12/02 05:15:20;;;;;;;1.65;1.25;;;;;;;;;;4999122;28;20498;-67
2021/12/02 05:17:46;;;;;;;1.70;0.90;;;;;;;;;;5007603;28;20074;-67
2021/12/02 05:20:13;;;;;;;1.23;1.13;;;;;;;;;;5002420;28;20404;-67
2021/12/02 05:22:40;;;;;;;1.07;0.93;;;;;;;;;;5004159;28;20053;-67
2021/12/02 05:25:06;;;;;;;1.83;1.27;;;;;;;;;;5003846;28;20470;-67
2021/12/02 05:27:33;;;;;;;;;;;;;;;;;;5007438;28;20081;-67
2021/12/02 05:30:00;;;;;;;2.38;1.60;;;;;;;;;;5004884;28;19921;-67
2021/12/02 05:32:30;;;;;;;2.03;1.25;;;;;;;;;;5006284;28;20081;-67
2021/12/02 05:34:57;;;;;;;1.77;1.35;;;;;;;;;;5006111;28;20104;-67
2021/12/02 05:37:24;;;;;;;1.95;1.30;;;;;;;;;;5004893;28;20085;-67
2021/12/02 05:39:50;;;;;;;1.92;1.00;;;;;;;;;;5000060;28;20077;-66
2021/12/02 05:42:18;;;;;;;1.45;1.30;;;;;;;;;;5008638;28;20137;-67
2021/12/02 05:44:45;;;;;;;1.73;0.95;;;;;;;;;;5002428;28;20053;-67
2021/12/02 05:47:12;;;;;;;2.33;1.38;;;;;;;;;;4998594;28;20081;-67
2021/12/02 05:49:39;;;;;;;2.00;1.63;;;;;;;;;;4995949;28;20047;-67
2021/12/02 05:52:06;;;;;;;1.30;1.20;;;;;;;;;;4997722;28;20157;-67
2021/12/02 05:54:32;;;;;;;2.63;1.40;;;;;;;;;;5002524;28;20085;-67
2021/12/02 05:56:59;;;;;;;1.42;1.13;;;;;;;;;;5003414;28;20581;-67
2021/12/02 05:59:25;;;;;;;1.43;1.20;;;;;;;;;;5004446;28;20053;-67
2021/12/02 06:01:52;;;;;;;3.20;0.93;;;;;;;;;;5010969;28;20136;-67
2021/12/02 06:04:19;;;;;;;3.45;1.75;;;;;;;;;;5006050;28;20831;-68
2021/12/02 06:06:45;;;;;;;1.35;1.05;;;;;;;;;;5006664;28;20045;-67
2021/12/02 06:09:12;;;;;;;1.20;1.02;;;;;;;;;;5001329;28;20100;-67
2021/12/02 06:11:40;;;;;;;4.70;1.60;;;;;;;;;;5010042;28;20111;-67
2021/12/02 06:14:06;;;;;;;4.20;1.43;;;;;;;;;;4999571;28;20051;-67
2021/12/02 06:16:33;;;;;;;1.17;0.97;;;;;;;;;;5004009;28;20088;-67
2021/12/02 06:19:00;;;;;;;1.52;1.10;;;;;;;;;;4997328;28;20309;-67
2021/12/02 06:21:26;;;;;;;1.63;1.13;;;;;;;;;;4998740;28;21633;-67
2021/12/02 06:23:53;;;;;;;2.47;1.58;;;;;;;;;;4998266;28;20133;-67
2021/12/02 06:26:19;;;;;;;2.10;1.35;;;;;;;;;;5005165;28;20140;-67
2021/12/02 06:28:46;;;;;;;2.17;1.40;;;;;;;;;;5000997;28;20092;-67
2021/12/02 06:31:13;;;;;;;4.50;1.75;;;;;;;;;;5005864;28;20481;-67
2021/12/02 06:33:39;;;;;;;6.25;1.60;;;;;;;;;;5003910;28;20483;-67
2021/12/02 06:36:06;;;;;;;2.88;1.77;;;;;;;;;;5003029;28;20085;-67
2021/12/02 06:38:40;;;;;;;2.97;1.70;;;;;;;;;;5005674;28;20096;-67
2021/12/02 06:41:07;;;;;;;3.37;2.17;;;;;;;;;;5004578;28;20577;-67
2021/12/02 06:43:33;;;;;;;3.53;2.03;;;;;;;;;;5010097;28;20879;-67
2021/12/02 06:46:00;;;;;;;4.27;2.93;;;;;;;;;;5002541;28;20137;-67
2021/12/02 06:48:26;;;;;;;2.38;1.48;;;;;;;;;;5000991;28;20101;-67
2021/12/02 06:50:53;;;;;;;4.00;1.60;;;;;;;;;;5006383;28;20502;-67
2021/12/02 06:53:19;;;;;;;6.30;1.60;;;;;;;;;;5004727;28;20074;-67
2021/12/02 06:55:47;;;;;;;1.73;1.40;;;;;;;;;;4996392;28;20050;-67
2021/12/02 06:58:14;;;;;;;3.63;1.50;;;;;;;;;;4991950;28;20136;-67
2021/12/02 07:00:40;;;;;;;1.67;1.23;;;;;;;;;;5005913;28;20081;-67
2021/12/02 07:03:07;;;;;;;2.22;1.25;;;;;;;;;;5002950;28;20145;-67
2021/12/02 07:05:34;;;;;;;2.53;1.15;;;;;;;;;;5001851;28;20509;-67
2021/12/02 07:08:01;;;;;;;2.50;1.15;;;;;;;;;;5002004;28;20494;-67
2021/12/02 07:10:29;;;;;;;2.10;1.40;;;;;;;;;;5003223;28;20085;-67
2021/12/02 07:12:57;;;;;;;1.53;1.33;;;;;;;;;;5005371;28;20154;-67
2021/12/02 07:15:39;;;;;;;2.22;1.30;;;;;;;;;;5005143;28;20057;-67
2021/12/02 07:18:12;;;;;;;1.43;0.93;;;;;;;;;;4999060;28;20241;-67
2021/12/02 07:20:40;;;;;;;2.17;1.30;;;;;;;;;;4996507;28;20545;-67
2021/12/02 07:23:07;;;;;;;2.83;1.30;;;;;;;;;;5001454;28;20477;-67
2021/12/02 07:25:34;;;;;;;1.23;0.93;;;;;;;;;;5004084;28;20145;-67
2021/12/02 07:28:01;;;;;;;1.40;1.02;;;;;;;;;;4997351;28;20929;-67
2021/12/02 07:30:28;;;;;;;2.67;1.40;;;;;;;;;;4996959;28;20089;-66
2021/12/02 07:32:56;;;;;;;2.33;1.20;;;;;;;;;;5002786;28;20154;-67
2021/12/02 07:35:23;;;;;;;2.03;1.00;;;;;;;;;;5002834;28;20346;-67
2021/12/02 07:37:54;;;;;;;1.73;1.42;;;;;;;;;;5006167;28;20060;-67
2021/12/02 07:40:21;;;;;;;6.40;1.67;;;;;;;;;;5002358;28;20047;-66
2021/12/02 07:42:53;;;;;;;3.37;1.30;;;;;;;;;;5005209;28;20468;-67
2021/12/02 07:45:21;;;;;;;2.73;1.40;;;;;;;;;;5002823;28;20045;-67
2021/12/02 07:47:48;;;;;;;2.93;1.60;;;;;;;;;;5004486;28;20148;-67
2021/12/02 07:50:15;;;;;;;3.05;1.70;;;;;;;;;;4998408;28;20290;-67
2021/12/02 07:52:45;;;;;;;1.60;1.20;;;;;;;;;;5005759;28;20069;-67
2021/12/02 07:55:13;;;;;;;2.27;1.33;;;;;;;;;;5001936;28;20077;-67
2021/12/02 07:57:41;;;;;;;3.47;1.70;;;;;;;;;;5005972;28;20057;-67
2021/12/02 08:00:09;;;;;;;2.70;1.53;;;;;;;;;;5003169;28;20562;-67
2021/12/02 08:02:36;;;;;;;4.25;1.90;;;;;;;;;;5002206;28;20070;-67
2021/12/02 08:05:03;;;;;;;3.80;1.55;;;;;;;;;;4995048;28;20138;-67
2021/12/02 08:07:31;;;;;;;;;;;;;;;;;;5007874;28;20088;-67
2021/12/02 08:09:58;;;;;;;4.47;1.83;;;;;;;;;;5002552;28;20028;-67
2021/12/02 08:12:24;;;;;;;4.72;1.60;;;;;;;;;;5001120;28;20137;-67
2021/12/02 08:14:51;;;;;;;4.20;1.80;;;;;;;;;;5005123;28;20409;-67
2021/12/02 08:17:20;;;;;;;3.17;1.60;;;;;;;;;;5007220;28;20049;-67
2021/12/02 08:19:47;;;;;;;2.20;1.47;;;;;;;;;;5006188;28;20081;-67
2021/12/02 08:22:14;;;;;;;;;;;;;;;;;;5005473;28;20388;-67
2021/12/02 08:24:40;;;;;;;9.00;1.83;;;;;;;;;;5002627;28;19922;-67
2021/12/02 08:27:07;;;;;;;2.23;1.93;;;;;;;;;;5005901;28;20085;-67
2021/12/02 08:29:34;;;;;;;3.83;2.10;;;;;;;;;;5008264;28;20316;-67
2021/12/02 08:32:02;;;;;;;3.70;1.73;;;;;;;;;;5008253;28;20140;-67
2021/12/02 08:34:28;;;;;;;5.10;2.17;;;;;;;;;;5001326;28;20053;-67
2021/12/02 08:36:56;;;;;;;2.42;1.90;;;;;;;;;;4995564;28;20081;-67
2021/12/02 08:39:25;;;;;;;3.30;1.70;;;;;;;;;;4996624;28;20594;-67
2021/12/02 08:41:55;;;;;;;6.03;1.97;;;;;;;;;;4989137;28;20141;-67
2021/12/02 08:44:23;;;;;;;6.67;2.37;;;;;;;;;;4982461;28;20081;-67
2021/12/02 08:46:50;;;;;;;;;;;;;;;;;;4980760;28;20074;-67
2021/12/02 08:49:16;;;;;;;3.70;2.00;;;;;;;;;;4985522;28;19976;-67
2021/12/02 08:51:44;;;;;;;8.00;3.42;;;;;;;;;;4986526;28;20133;-67
2021/12/02 08:54:13;;;;;;;4.87;2.00;;;;;;;;;;4986081;28;20051;-67
2021/12/02 08:56:40;;;;;;;3.40;1.48;;;;;;;;;;4984740;28;20086;-67
2021/12/02 08:59:07;;;;;;;4.85;2.00;;;;;;;;;;4985730;28;20093;-67
2021/12/02 09:01:34;;;;;;;5.05;1.90;;;;;;;;;;4986900;28;20133;-67
2021/12/02 09:04:02;;;;;;;6.67;2.00;;;;;;;;;;4984445;28;20059;-67
2021/12/02 09:06:29;;;;;;;4.73;1.83;;;;;;;;;;4988294;28;20483;-67
2021/12/02 09:08:58;;;;;;;3.03;1.90;;;;;;;;;;4981197;28;20212;-66
2021/12/02 09:11:31;;;;;;;4.07;2.10;;;;;;;;;;4980032;28;20569;-67
2021/12/02 09:13:58;;;;;;;3.23;2.20;;;;;;;;;;4976472;28;20047;-67
2021/12/02 09:16:25;;;;;;;5.13;1.83;;;;;;;;;;4984308;28;20055;-67
2021/12/02 09:18:53;;;;;;;4.95;2.22;;;;;;;;;;4970767;28;20500;-67
2021/12/02 09:21:21;;;;;;;7.87;2.30;;;;;;;;;;4985782;28;20129;-67
2021/12/02 09:23:48;;;;;;;3.75;1.45;;;;;;;;;;4985205;28;20497;-67
2021/12/02 09:26:15;;;;;;;4.28;1.73;;;;;;;;;;4987013;28;20525;-66
2021/12/02 09:28:42;;;;;;;3.13;2.03;;;;;;;;;;4985378;28;20153;-66
2021/12/02 09:31:08;;;;;;;6.55;2.00;;;;;;;;;;4988516;28;20479;-67
2021/12/02 09:33:35;;;;;;;3.67;1.87;;;;;;;;;;4983276;28;20082;-67
2021/12/02 09:36:04;;;;;;;2.60;1.53;;;;;;;;;;4982645;28;20297;-67
2021/12/02 09:38:31;;;;;;;3.40;1.77;;;;;;;;;;4986845;28;20605;-66
2021/12/02 09:40:57;;;;;;;4.20;2.03;;;;;;;;;;4988703;28;20141;-66
2021/12/02 09:43:24;;;;;;;2.08;1.60;;;;;;;;;;4984547;28;20778;-67
2021/12/02 09:45:51;;;;;;;2.40;1.38;;;;;;;;;;4981170;28;20130;-67
2021/12/02 09:48:17;;;;;;;3.97;1.88;;;;;;;;;;4981301;28;20054;-67
2021/12/02 09:51:01;;;;;;;;;;;;;;;;;;4984052;28;20407;-67
2021/12/02 09:54:00;;;;;;;5.37;2.50;;;;;;;;;;4977942;28;19928;-67
2021/12/02 09:56:32;;;;;;;7.13;2.23;;;;;;;;;;4979234;28;20141;-66
2021/12/02 09:59:09;;;;;;;6.27;2.33;;;;;;;;;;4986249;28;20145;-67
2021/12/02 10:01:48;;;;;;;3.63;2.03;;;;;;;;;;4986795;28;20073;-67
2021/12/02 10:04:16;;;;;;;4.67;2.10;;;;;;;;;;4976196;28;20065;-66
2021/12/02 10:06:43;;;;;;;4.45;2.00;;;;;;;;;;4984325;28;20048;-67
2021/12/02 10:09:13;;;;;;;3.10;1.90;;;;;;;;;;4980344;28;20130;-67
2021/12/02 10:11:52;;;;;;;4.73;2.27;;;;;;;;;;4985078;28;20060;-67
2021/12/02 10:14:31;;;;;;;3.17;1.77;;;;;;;;;;4983572;28;20081;-66
2021/12/02 10:17:21;;;;;;;6.97;2.63;;;;;;;;;;4980211;28;20149;-67
2021/12/02 10:20:17;;;;;;;3.07;2.10;;;;;;;;;;4978900;28;20054;-67
2021/12/02 10:23:05;;;;;;;3.47;1.73;;;;;;;;;;4989109;28;20050;-67
2021/12/02 10:25:33;;;;;;;2.70;1.90;;;;;;;;;;4984863;28;20051;-67
2021/12/02 10:28:00;;;;;;;4.97;2.30;;;;;;;;;;4977635;28;20151;-67
2021/12/02 10:30:27;;;;;;;3.20;1.85;;;;;;;;;;4984831;28;20046;-67
2021/12/02 10:32:54;;;;;;;4.35;1.90;;;;;;;;;;4980124;28;20401;-67
2021/12/02 10:35:35;;;;;;;2.63;1.80;;;;;;;;;;4978941;28;20050;-66
2021/12/02 10:38:03;;;;;;;2.53;1.50;;;;;;;;;;4984290;28;20050;-67
2021/12/02 10:40:29;;;;;;;3.28;1.60;;;;;;;;;;4986247;28;20069;-67
2021/12/02 10:43:04;;;;;;;5.32;1.48;;;;;;;;;;4981523;28;20065;-67
2021/12/02 10:45:31;;;;;;;4.53;1.70;;;;;;;;;;4983504;28;20058;-67
2021/12/02 10:47:58;;;;;;;5.63;1.98;;;;;;;;;;4979246;28;20062;-67
2021/12/02 10:50:25;;;;;;;2.05;1.52;;;;;;;;;;4983951;28;20129;-67
2021/12/02 10:52:52;;;;;;;;;;;;;;;;;;4980612;28;20129;-67
2021/12/02 10:55:21;;;;;;;3.30;1.43;;;;;;;;;;4989003;28;19972;-67
2021/12/02 10:57:54;;;;;;;2.93;1.70;;;;;;;;;;4984330;28;20101;-67
2021/12/02 11:00:25;;;;;;;5.07;1.43;;;;;;;;;;4976636;28;20097;-67
2021/12/02 11:02:53;;;;;;;7.50;2.00;;;;;;;;;;4980722;28;20153;-67
2021/12/02 11:05:27;;;;;;;2.33;1.30;;;;;;;;;;4986112;28;20050;-67
2021/12/02 11:07:58;;;;;;;3.90;1.90;;;;;;;;;;4983533;28;20118;-67
2021/12/02 11:10:25;;;;;;;3.83;2.00;;;;;;;;;;4985982;28;20088;-67
2021/12/02 11:12:53;;;;;;;4.45;1.65;;;;;;;;;;4983631;28;20090;-67
2021/12/02 11:15:21;;;;;;;3.57;2.23;;;;;;;;;;4982674;28;20129;-67
2021/12/02 11:17:48;;;;;;;4.07;1.77;;;;;;;;;;4985816;28;20093;-67
2021/12/02 11:20:17;;;;;;;2.13;1.23;;;;;;;;;;4984189;28;20078;-67
2021/12/02 11:22:44;;;;;;;3.87;1.50;;;;;;;;;;4982933;28;20338;-67
2021/12/02 11:25:11;;;;;;;3.70;1.67;;;;;;;;;;4983569;28;20085;-67
2021/12/02 11:27:43;;;;;;;3.40;1.73;;;;;;;;;;4983953;28;20137;-67
2021/12/02 11:30:19;;;;;;;2.63;1.50;;;;;;;;;;4994269;28;20098;-67
2021/12/02 11:32:47;;;;;;;2.33;1.80;;;;;;;;;;4980269;28;20078;-67
2021/12/02 11:35:15;;;;;;;4.63;1.80;;;;;;;;;;4986177;28;20465;-66
2021/12/02 11:37:44;;;;;;;3.03;1.80;;;;;;;;;;4986387;28;20058;-67
2021/12/02 11:40:13;;;;;;;2.15;1.73;;;;;;;;;;4988551;28;20089;-66
2021/12/02 11:42:41;;;;;;;2.80;1.87;;;;;;;;;;4986529;28;20058;-67
2021/12/02 11:45:14;;;;;;;2.87;1.53;;;;;;;;;;4985918;28;20613;-66
2021/12/02 11:47:41;;;;;;;3.70;1.70;;;;;;;;;;4988368;28;20047;-66
2021/12/02 11:50:09;;;;;;;6.47;1.98;;;;;;;;;;4987231;28;20247;-66
2021/12/02 11:52:37;;;;;;;5.33;1.67;;;;;;;;;;4984262;28;20599;-67
2021/12/02 11:55:06;;;;;;;3.67;1.60;;;;;;;;;;4982108;28;20077;-67
2021/12/02 11:57:33;;;;;;;6.80;1.93;;;;;;;;;;4981621;28;20145;-67
2021/12/02 12:00:04;;;;;;;4.23;1.60;;;;;;;;;;4978635;28;20049;-66
2021/12/02 12:02:30;;;;;;;3.40;1.70;;;;;;;;;;4988039;28;20522;-66
2021/12/02 12:04:59;;;;;;;3.70;1.38;;;;;;;;;;4985060;28;20137;-67
2021/12/02 12:07:37;;;;;;;3.78;1.90;;;;;;;;;;4984763;28;20074;-67
2021/12/02 12:10:25;;;;;;;2.40;1.58;;;;;;;;;;4989004;28;20156;-67
2021/12/02 12:12:53;;;;;;;6.38;3.00;;;;;;;;;;4983091;28;20043;-66
2021/12/02 12:15:32;;;;;;;4.43;1.70;;;;;;;;;;4984016;28;20070;-66
2021/12/02 12:18:00;;;;;;;3.20;1.53;;;;;;;;;;4984810;28;20089;-66
2021/12/02 12:20:46;;;;;;;4.95;2.03;;;;;;;;;;4985792;28;20097;-66
2021/12/02 12:23:32;;;;;;;4.65;1.70;;;;;;;;;;4983507;28;20329;-66
2021/12/02 12:26:18;;;;;;;6.70;2.53;;;;;;;;;;4985637;28;20589;-66
2021/12/02 12:29:03;;;;;;;4.77;1.80;;;;;;;;;;4985089;28;20077;-66
2021/12/02 12:31:31;;;;;;;6.13;2.10;;;;;;;;;;4985127;28;20494;-66
2021/12/02 12:34:00;;;;;;;4.30;2.30;;;;;;;;;;4976412;28;20411;-66
2021/12/02 12:36:44;;;;;;;8.25;2.50;;;;;;;;;;4979932;28;20085;-66
2021/12/02 12:39:22;;;;;;;9.05;3.03;;;;;;;;;;4976892;28;20554;-66
2021/12/02 12:42:08;;;;;;;9.23;2.88;;;;;;;;;;4978173;28;20110;-67
2021/12/02 12:44:51;;;;;;;4.30;2.07;;;;;;;;;;4981157;28;20050;-66
2021/12/02 12:47:19;;;;;;;5.57;2.77;;;;;;;;;;4988219;28;20137;-66
2021/12/02 12:49:46;;;;;;;8.37;2.00;;;;;;;;;;4982168;28;20081;-66
2021/12/02 12:52:17;;;;;;;3.22;1.38;;;;;;;;;;4966509;28;20047;-66
2021/12/02 12:55:03;;;;;;;7.00;2.27;;;;;;;;;;4985856;28;20050;-67
2021/12/02 12:57:30;;;;;;;4.70;1.93;;;;;;;;;;4983447;28;20078;-67
2021/12/02 12:59:56;;;;;;;8.13;2.10;;;;;;;;;;4986149;28;20082;-66
2021/12/02 13:02:25;;;;;;;3.80;1.80;;;;;;;;;;4988738;28;20333;-67
2021/12/02 13:04:54;;;;;;;2.50;1.90;;;;;;;;;;4981884;28;20512;-66
2021/12/02 13:07:40;;;;;;;2.43;1.60;;;;;;;;;;4981026;28;20805;-66
2021/12/02 13:10:11;;;;;;;4.60;1.70;;;;;;;;;;4976038;28;20058;-66
2021/12/02 13:12:37;;;;;;;4.47;2.30;;;;;;;;;;4979258;28;20506;-67
2021/12/02 13:15:05;;;;;;;5.07;2.30;;;;;;;;;;4980732;28;20074;-66
2021/12/02 13:17:38;;;;;;;5.03;1.80;;;;;;;;;;4976773;28;20301;-66
2021/12/02 13:20:24;;;;;;;4.07;1.80;;;;;;;;;;4982371;28;20455;-67
2021/12/02 13:23:09;;;;;;;3.97;2.00;;;;;;;;;;4980711;28;20057;-66
2021/12/02 13:25:44;;;;;;;3.27;1.90;;;;;;;;;;4981651;28;20050;-67
2021/12/02 13:28:14;;;;;;;8.13;1.93;;;;;;;;;;4986048;28;20707;-66
2021/12/02 13:30:45;;;;;;;3.83;1.90;;;;;;;;;;4983921;28;20106;-66
2021/12/02 13:33:12;;;;;;;12.37;2.07;;;;;;;;;;4985888;28;20438;-66
2021/12/02 13:35:39;;;;;;;3.80;1.80;;;;;;;;;;4983331;28;20050;-66
2021/12/02 13:38:06;;;;;;;2.75;1.67;;;;;;;;;;4979507;28;20293;-66
2021/12/02 13:40:34;;;;;;;3.17;2.00;;;;;;;;;;4986759;28;20081;-66
2021/12/02 13:43:00;;;;;;;4.33;2.20;;;;;;;;;;4983112;28;20488;-66
2021/12/02 13:45:29;;;;;;;3.23;1.90;;;;;;;;;;4976863;28;20159;-66
2021/12/02 13:48:15;;;;;;;3.57;2.27;;;;;;;;;;4983419;28;20325;-66
2021/12/02 13:50:45;;;;;;;5.23;2.40;;;;;;;;;;4988697;28;20096;-66
2021/12/02 13:53:12;;;;;;;8.23;2.37;;;;;;;;;;4990598;28;20051;-66
2021/12/02 13:55:41;;;;;;;4.72;2.20;;;;;;;;;;4980761;28;20086;-67
2021/12/02 13:58:19;;;;;;;3.60;2.07;;;;;;;;;;4984481;28;20054;-66
2021/12/02 14:00:52;;;;;;;7.00;2.53;;;;;;;;;;4989699;28;20055;-66
2021/12/02 14:03:20;;;;;;;4.70;2.43;;;;;;;;;;4984911;28;20093;-66
2021/12/02 14:05:50;;;;;;;4.93;2.50;;;;;;;;;;4982699;28;20133;-66
2021/12/02 14:08:21;;;;;;;6.73;2.57;;;;;;;;;;4986657;28;20046;-66
2021/12/02 14:10:48;;;;;;;4.90;2.23;;;;;;;;;;4981676;28;20129;-66
2021/12/02 14:13:16;;;;;;;4.97;2.42;;;;;;;;;;4979648;28;20579;-66
2021/12/02 14:15:44;;;;;;;5.07;2.30;;;;;;;;;;4983507;28;20046;-66
2021/12/02 14:18:19;;;;;;;3.63;2.20;;;;;;;;;;4982185;28;20137;-66
2021/12/02 14:20:46;;;;;;;4.00;2.10;;;;;;;;;;4984272;28;20133;-66
2021/12/02 14:23:14;;;;;;;3.60;2.30;;;;;;;;;;4982758;28;20101;-66
2021/12/02 14:25:45;;;;;;;5.27;2.60;;;;;;;;;;4980609;28;20129;-67
2021/12/02 14:28:15;;;;;;;4.47;2.13;;;;;;;;;;4983614;28;20078;-67
2021/12/02 14:30:49;;;;;;;5.40;2.20;;;;;;;;;;4980869;28;20275;-66
2021/12/02 14:33:17;;;;;;;4.27;1.67;;;;;;;;;;4986461;28;20138;-66
2021/12/02 14:35:46;;;;;;;3.97;2.10;;;;;;;;;;4984698;28;20101;-66
2021/12/02 14:38:16;;;;;;;6.47;2.40;;;;;;;;;;4983846;28;20129;-66
2021/12/02 14:40:45;;;;;;;6.17;2.20;;;;;;;;;;4983185;28;20130;-66
2021/12/02 14:43:16;;;;;;;3.60;2.10;;;;;;;;;;4985264;28;20092;-66
2021/12/02 14:45:44;;;;;;;5.17;2.27;;;;;;;;;;4982960;28;20142;-66
2021/12/02 14:48:28;;;;;;;8.52;1.98;;;;;;;;;;4979176;28;20460;-66
2021/12/02 14:51:00;;;;;;;4.10;2.50;;;;;;;;;;4980355;28;20065;-66
2021/12/02 14:53:28;;;;;;;5.20;2.40;;;;;;;;;;4980212;28;20082;-66
2021/12/02 14:55:57;;;;;;;7.90;2.70;;;;;;;;;;4978494;28;20450;-66
2021/12/02 14:58:26;;;;;;;4.83;2.80;;;;;;;;;;4979962;28;20046;-66
2021/12/02 15:01:09;;;;;;;4.80;2.47;;;;;;;;;;4981348;28;20103;-67
2021/12/02 15:03:36;;;;;;;6.23;2.20;;;;;;;;;;4978299;28;20051;-66
2021/12/02 15:06:03;;;;;;;5.00;2.10;;;;;;;;;;4981314;28;20152;-66
2021/12/02 15:08:33;;;;;;;4.88;2.60;;;;;;;;;;4978082;28;20077;-66
2021/12/02 15:11:04;;;;;;;5.30;2.83;;;;;;;;;;4978428;28;20458;-66
2021/12/02 15:13:41;;;;;;;5.47;3.10;;;;;;;;;;4979525;28;20053;-66
2021/12/02 15:16:09;;;;;;;5.72;2.33;;;;;;;;;;4978662;28;20101;-66
2021/12/02 15:18:35;;;;;;;3.83;1.77;;;;;;;;;;4979036;28;20060;-66
2021/12/02 15:21:02;;;;;;;3.10;1.77;;;;;;;;;;4977016;28;20137;-68